createdAt,value
2022-12-25T00:01:24.910Z,8.30
2022-12-25T00:03:53.824Z,8.30
2022-12-25T00:06:22.497Z,8.20
2022-12-25T00:08:51.083Z,8.20
2022-12-25T00:11:21.517Z,8.20
2022-12-25T00:13:51.318Z,8.20
2022-12-25T00:16:25.544Z,8.20
2022-12-25T00:18:56.228Z,8.20
2022-12-25T00:21:25.774Z,8.26
2022-12-25T00:23:56.968Z,8.30
2022-12-25T00:26:27.428Z,8.20
2022-12-25T00:28:58.536Z,8.20
2022-12-25T00:31:27.370Z,8.18
2022-12-25T00:33:55.979Z,8.28
2022-12-25T00:36:24.957Z,8.30
2022-12-25T00:38:53.703Z,8.30
2022-12-25T00:41:43.531Z,8.40
2022-12-25T00:44:14.218Z,8.40
2022-12-25T00:46:43.675Z,8.40
2022-12-25T00:49:12.882Z,8.40
2022-12-25T00:51:41.480Z,8.40
2022-12-25T00:54:10.556Z,8.32
2022-12-25T00:56:40.366Z,8.32
2022-12-25T00:59:09.254Z,8.30
2022-12-25T01:01:39.704Z,8.30
2022-12-25T01:04:09.744Z,8.30
2022-12-25T01:06:39.108Z,8.30
2022-12-25T01:09:26.631Z,8.30
2022-12-25T01:11:55.213Z,8.30
2022-12-25T01:14:23.908Z,8.28
2022-12-25T01:16:52.661Z,8.20
2022-12-25T01:19:21.274Z,8.16
2022-12-25T01:21:49.858Z,8.10
2022-12-25T01:24:18.455Z,8.10
2022-12-25T01:26:47.131Z,8.10
2022-12-25T01:29:15.610Z,8.00
2022-12-25T01:31:44.862Z,8.00
2022-12-25T01:34:13.531Z,7.90
2022-12-25T01:36:42.287Z,7.82
2022-12-25T01:39:10.989Z,7.80
2022-12-25T01:41:39.764Z,7.80
2022-12-25T01:44:35.625Z,7.80
2022-12-25T01:47:06.488Z,7.72
2022-12-25T01:49:39.435Z,7.62
2022-12-25T01:52:11.861Z,7.60
2022-12-25T01:55:04.293Z,7.60
2022-12-25T01:57:36.349Z,7.60
2022-12-25T02:00:07.649Z,7.60
2022-12-25T02:02:37.504Z,7.60
2022-12-25T02:05:29.509Z,7.60
2022-12-25T02:08:08.952Z,7.54
2022-12-25T02:10:39.390Z,7.50
2022-12-25T02:13:08.707Z,7.40
2022-12-25T02:16:11.349Z,7.40
2022-12-25T02:18:48.527Z,7.40
2022-12-25T02:21:47.934Z,7.40
2022-12-25T02:24:41.811Z,7.20
2022-12-25T02:27:37.841Z,7.10
2022-12-25T02:30:10.409Z,6.98
2022-12-25T02:32:47.911Z,6.90
2022-12-25T02:35:19.568Z,6.80
2022-12-25T02:37:57.267Z,6.70
2022-12-25T02:40:43.126Z,6.62
2022-12-25T02:43:48.614Z,6.60
2022-12-25T02:46:40.538Z,6.54
2022-12-25T02:49:56.330Z,6.50
2022-12-25T02:52:47.134Z,6.50
2022-12-25T02:55:41.323Z,6.50
2022-12-25T02:58:37.143Z,6.36
2022-12-25T03:01:31.116Z,6.20
2022-12-25T03:04:23.054Z,6.10
2022-12-25T03:07:21.925Z,6.04
2022-12-25T03:10:16.461Z,6.00
2022-12-25T03:13:01.828Z,6.00
2022-12-25T03:15:50.476Z,6.00
2022-12-25T03:18:24.692Z,6.00
2022-12-25T03:21:13.554Z,6.00
2022-12-25T03:24:22.082Z,6.00
2022-12-25T03:26:57.116Z,6.00
2022-12-25T03:29:52.532Z,6.08
2022-12-25T03:32:46.504Z,6.00
2022-12-25T03:35:34.338Z,5.90
2022-12-25T03:38:38.046Z,5.70
2022-12-25T03:42:02.646Z,5.60
2022-12-25T03:45:17.724Z,5.44
2022-12-25T03:48:29.518Z,5.40
2022-12-25T03:51:26.366Z,5.34
2022-12-25T03:54:21.281Z,5.34
2022-12-25T03:57:09.510Z,5.30
2022-12-25T03:59:56.731Z,5.20
2022-12-25T04:02:44.260Z,5.14
2022-12-25T04:05:32.195Z,5.10
2022-12-25T04:08:19.735Z,5.10
2022-12-25T04:11:07.360Z,5.10
2022-12-25T04:13:54.583Z,5.20
2022-12-25T04:16:41.817Z,5.20
2022-12-25T04:19:29.637Z,5.20
2022-12-25T04:22:16.765Z,5.20
2022-12-25T04:25:04.186Z,5.20
2022-12-25T04:27:51.411Z,5.30
2022-12-25T04:30:38.948Z,5.28
2022-12-25T04:33:26.058Z,5.20
2022-12-25T04:36:09.818Z,5.20
2022-12-25T04:38:40.267Z,5.20
2022-12-25T04:41:12.324Z,5.20
2022-12-25T04:43:41.284Z,5.20
2022-12-25T04:46:09.845Z,5.20
2022-12-25T04:48:38.754Z,5.20
2022-12-25T04:51:20.532Z,5.20
2022-12-25T04:53:50.704Z,5.20
2022-12-25T04:56:20.901Z,5.16
2022-12-25T04:58:49.889Z,5.20
2022-12-25T05:01:18.383Z,5.16
2022-12-25T05:03:47.227Z,5.20
2022-12-25T05:06:15.948Z,5.10
2022-12-25T05:08:44.533Z,5.14
2022-12-25T05:11:16.267Z,5.20
2022-12-25T05:13:45.285Z,5.20
2022-12-25T05:16:18.227Z,5.20
2022-12-25T05:18:51.186Z,5.30
2022-12-25T05:21:20.259Z,5.30
2022-12-25T05:23:53.315Z,5.38
2022-12-25T05:26:25.743Z,5.40
2022-12-25T05:28:55.531Z,5.40
2022-12-25T05:31:24.141Z,5.40
2022-12-25T05:33:53.225Z,5.40
2022-12-25T05:36:21.899Z,5.30
2022-12-25T05:38:51.401Z,5.30
2022-12-25T05:41:20.231Z,5.30
2022-12-25T05:43:48.738Z,5.30
2022-12-25T05:46:18.212Z,5.40
2022-12-25T05:48:46.868Z,5.40
2022-12-25T05:51:15.764Z,5.40
2022-12-25T05:53:44.650Z,5.40
2022-12-25T05:56:13.236Z,5.30
2022-12-25T05:58:42.438Z,5.28
2022-12-25T06:01:19.281Z,5.30
2022-12-25T06:03:48.075Z,5.32
2022-12-25T06:06:17.115Z,5.38
2022-12-25T06:08:45.994Z,5.34
2022-12-25T06:11:15.505Z,5.30
2022-12-25T06:13:44.673Z,5.30
2022-12-25T06:16:13.623Z,5.40
2022-12-25T06:18:48.101Z,5.40
2022-12-25T06:21:17.011Z,5.30
2022-12-25T06:23:45.842Z,5.30
2022-12-25T06:26:18.199Z,5.30
2022-12-25T06:28:47.569Z,5.34
2022-12-25T06:31:22.118Z,5.34
2022-12-25T06:33:50.992Z,5.30
2022-12-25T06:36:29.443Z,5.30
2022-12-25T06:39:01.899Z,5.30
2022-12-25T06:41:31.505Z,5.34
2022-12-25T06:44:02.142Z,5.30
2022-12-25T06:46:31.390Z,5.30
2022-12-25T06:49:00.528Z,5.30
2022-12-25T06:51:32.281Z,5.30
2022-12-25T06:54:04.242Z,5.30
2022-12-25T06:56:34.908Z,5.24
2022-12-25T06:59:07.447Z,5.20
2022-12-25T07:02:09.318Z,5.20
2022-12-25T07:04:42.669Z,5.20
2022-12-25T07:07:11.496Z,5.20
2022-12-25T07:09:42.474Z,5.20
2022-12-25T07:12:13.798Z,5.20
2022-12-25T07:14:44.633Z,5.18
2022-12-25T07:17:13.104Z,5.20
2022-12-25T07:19:45.207Z,5.10
2022-12-25T07:22:15.494Z,5.10
2022-12-25T07:24:44.399Z,5.20
2022-12-25T07:27:13.072Z,5.20
2022-12-25T07:29:41.652Z,5.20
2022-12-25T07:32:10.392Z,5.10
2022-12-25T07:34:39.453Z,5.10
2022-12-25T07:37:08.022Z,5.10
2022-12-25T07:39:36.605Z,5.10
2022-12-25T07:42:05.392Z,5.10
2022-12-25T07:44:34.081Z,5.10
2022-12-25T07:47:02.781Z,5.06
2022-12-25T07:49:31.556Z,5.00
2022-12-25T07:52:00.046Z,5.10
2022-12-25T07:54:28.726Z,5.16
2022-12-25T07:56:57.315Z,5.18
2022-12-25T07:59:26.678Z,5.10
2022-12-25T08:01:55.427Z,5.10
2022-12-25T08:04:24.293Z,5.10
2022-12-25T08:06:52.979Z,5.08
2022-12-25T08:09:21.584Z,5.10
2022-12-25T08:11:50.458Z,5.10
2022-12-25T08:14:18.940Z,5.10
2022-12-25T08:16:47.602Z,5.10
2022-12-25T08:19:16.104Z,5.10
2022-12-25T08:21:44.696Z,5.00
2022-12-25T08:24:13.497Z,5.04
2022-12-25T08:26:42.167Z,5.10
2022-12-25T08:29:10.652Z,5.20
2022-12-25T08:31:46.074Z,5.20
2022-12-25T08:34:16.013Z,5.20
2022-12-25T08:36:44.602Z,5.10
2022-12-25T08:39:13.283Z,5.10
2022-12-25T08:41:42.074Z,5.20
2022-12-25T08:44:12.231Z,5.20
2022-12-25T08:46:41.022Z,5.20
2022-12-25T08:49:09.665Z,5.20
2022-12-25T08:51:38.361Z,5.18
2022-12-25T08:54:06.936Z,5.20
2022-12-25T08:56:36.854Z,5.20
2022-12-25T08:59:05.439Z,5.22
2022-12-25T09:01:34.241Z,5.30
2022-12-25T09:04:02.917Z,5.30
2022-12-25T09:06:31.960Z,5.32
2022-12-25T09:09:00.712Z,5.40
2022-12-25T09:11:29.504Z,5.40
2022-12-25T09:13:58.274Z,5.48
2022-12-25T09:16:27.041Z,5.50
2022-12-25T09:19:00.609Z,5.50
2022-12-25T09:21:29.148Z,5.60
2022-12-25T09:23:57.735Z,5.60
2022-12-25T09:26:27.463Z,5.60
2022-12-25T09:28:56.038Z,5.70
2022-12-25T09:31:24.997Z,5.76
2022-12-25T09:33:58.272Z,5.80
2022-12-25T09:36:27.480Z,5.82
2022-12-25T09:38:55.998Z,5.90
2022-12-25T09:41:40.663Z,6.00
2022-12-25T09:44:22.081Z,6.10
2022-12-25T09:47:04.964Z,6.10
2022-12-25T09:49:40.621Z,6.20
2022-12-25T09:52:17.801Z,6.20
2022-12-25T09:54:59.103Z,6.30
2022-12-25T09:57:27.665Z,6.30
2022-12-25T09:59:56.877Z,6.30
2022-12-25T10:03:01.041Z,6.30
2022-12-25T10:06:11.757Z,6.30
2022-12-25T10:08:48.054Z,6.40
2022-12-25T10:11:23.582Z,6.48
2022-12-25T10:14:13.266Z,6.50
2022-12-25T10:17:18.595Z,6.50
2022-12-25T10:20:15.547Z,6.52
2022-12-25T10:23:19.562Z,6.60
2022-12-25T10:25:48.859Z,6.70
2022-12-25T10:28:39.461Z,6.70
2022-12-25T10:31:30.790Z,6.70
2022-12-25T10:33:59.772Z,6.80
2022-12-25T10:36:30.761Z,6.80
2022-12-25T10:38:59.821Z,6.90
2022-12-25T10:42:09.881Z,7.00
2022-12-25T10:44:38.452Z,7.00
2022-12-25T10:47:07.045Z,7.00
2022-12-25T10:49:39.727Z,7.00
2022-12-25T10:52:22.599Z,7.00
2022-12-25T10:54:51.842Z,7.00
2022-12-25T10:57:26.311Z,7.00
2022-12-25T10:59:57.034Z,7.02
2022-12-25T11:02:34.929Z,7.02
2022-12-25T11:05:21.094Z,7.10
2022-12-25T11:07:56.443Z,7.10
2022-12-25T11:10:29.557Z,7.10
2022-12-25T11:13:00.216Z,7.10
2022-12-25T11:15:34.491Z,7.10
2022-12-25T11:18:18.146Z,7.10
2022-12-25T11:21:01.862Z,7.10
2022-12-25T11:23:33.054Z,7.10
2022-12-25T11:26:03.941Z,7.10
2022-12-25T11:28:37.516Z,7.10
2022-12-25T11:31:30.191Z,7.20
2022-12-25T11:34:07.068Z,7.20
2022-12-25T11:36:45.649Z,7.26
2022-12-25T11:39:39.990Z,7.24
2022-12-25T11:42:40.616Z,7.30
2022-12-25T11:45:15.191Z,7.30
2022-12-25T11:47:57.972Z,7.30
2022-12-25T11:50:37.082Z,7.30
2022-12-25T11:53:15.598Z,7.30
2022-12-25T11:55:57.493Z,7.30
2022-12-25T11:58:38.162Z,7.40
2022-12-25T12:01:33.472Z,7.40
2022-12-25T12:04:08.488Z,7.50
2022-12-25T12:06:52.465Z,7.50
2022-12-25T12:09:55.239Z,7.50
2022-12-25T12:13:07.241Z,7.50
2022-12-25T12:15:48.709Z,7.50
2022-12-25T12:18:23.193Z,7.52
2022-12-25T12:21:21.737Z,7.60
2022-12-25T12:24:11.519Z,7.60
2022-12-25T12:26:44.328Z,7.70
2022-12-25T12:29:30.335Z,7.70
2022-12-25T12:32:05.358Z,7.70
2022-12-25T12:34:51.939Z,7.70
2022-12-25T12:37:33.250Z,7.70
2022-12-25T12:40:02.932Z,7.68
2022-12-25T12:42:40.539Z,7.70
2022-12-25T12:45:29.871Z,7.70
2022-12-25T12:47:59.318Z,7.70
2022-12-25T12:50:37.407Z,7.70
2022-12-25T12:53:24.222Z,7.70
2022-12-25T12:55:53.323Z,7.70
2022-12-25T12:58:51.614Z,7.70
2022-12-25T13:01:56.276Z,7.72
2022-12-25T13:05:09.263Z,7.70
2022-12-25T13:08:28.123Z,7.70
2022-12-25T13:11:26.521Z,7.70
2022-12-25T13:14:00.142Z,7.80
2022-12-25T13:16:41.246Z,7.80
2022-12-25T13:19:22.216Z,7.80
2022-12-25T13:21:53.818Z,7.80
2022-12-25T13:24:29.076Z,7.80
2022-12-25T13:26:59.635Z,7.84
2022-12-25T13:29:35.312Z,7.90
2022-12-25T13:32:07.289Z,7.90
2022-12-25T13:34:42.177Z,7.90
2022-12-25T13:37:15.633Z,7.90
2022-12-25T13:39:51.739Z,7.88
2022-12-25T13:42:27.749Z,7.80
2022-12-25T13:44:57.769Z,7.80
2022-12-25T13:47:38.114Z,7.80
2022-12-25T13:50:24.559Z,7.80
2022-12-25T13:52:55.331Z,7.80
2022-12-25T13:55:29.295Z,7.80
2022-12-25T13:58:04.020Z,7.74
2022-12-25T14:00:36.182Z,7.76
2022-12-25T14:03:10.179Z,7.72
2022-12-25T14:05:42.709Z,7.70
2022-12-25T14:08:24.053Z,7.70
2022-12-25T14:10:54.867Z,7.70
2022-12-25T14:13:28.563Z,7.70
2022-12-25T14:15:58.300Z,7.70
2022-12-25T14:18:28.358Z,7.60
2022-12-25T14:21:25.685Z,7.60
2022-12-25T14:23:54.775Z,7.60
2022-12-25T14:26:28.538Z,7.60
2022-12-25T14:29:11.056Z,7.60
2022-12-25T14:31:46.458Z,7.60
2022-12-25T14:34:24.770Z,7.52
2022-12-25T14:36:54.153Z,7.58
2022-12-25T14:39:47.411Z,7.60
2022-12-25T14:42:31.195Z,7.50
2022-12-25T14:45:06.446Z,7.50
2022-12-25T14:47:52.118Z,7.50
2022-12-25T14:50:33.051Z,7.50
2022-12-25T14:53:01.638Z,7.50
2022-12-25T14:55:31.036Z,7.50
2022-12-25T14:58:07.999Z,7.50
2022-12-25T15:00:40.498Z,7.50
2022-12-25T15:03:26.719Z,7.50
2022-12-25T15:06:21.946Z,7.50
2022-12-25T15:09:03.698Z,7.50
2022-12-25T15:11:33.100Z,7.50
2022-12-25T15:14:01.589Z,7.50
2022-12-25T15:16:41.534Z,7.50
2022-12-25T15:19:13.463Z,7.52
2022-12-25T15:21:44.754Z,7.50
2022-12-25T15:24:13.839Z,7.56
2022-12-25T15:26:42.445Z,7.54
2022-12-25T15:29:11.328Z,7.56
2022-12-25T15:31:41.233Z,7.60
2022-12-25T15:34:21.108Z,7.60
2022-12-25T15:36:51.725Z,7.60
2022-12-25T15:39:20.706Z,7.60
2022-12-25T15:42:08.405Z,7.60
2022-12-25T15:44:37.844Z,7.60
2022-12-25T15:47:07.250Z,7.64
2022-12-25T15:49:35.942Z,7.66
2022-12-25T15:52:07.195Z,7.70
2022-12-25T15:54:36.277Z,7.70
2022-12-25T15:57:07.529Z,7.70
2022-12-25T15:59:36.108Z,7.70
2022-12-25T16:02:17.175Z,7.70
2022-12-25T16:04:46.277Z,7.70
2022-12-25T16:07:21.151Z,7.70
2022-12-25T16:09:50.122Z,7.70
2022-12-25T16:12:19.919Z,7.70
2022-12-25T16:14:48.519Z,7.70
2022-12-25T16:17:17.396Z,7.70
2022-12-25T16:19:46.098Z,7.70
2022-12-25T16:22:23.372Z,7.70
2022-12-25T16:24:53.271Z,7.70
2022-12-25T16:27:22.689Z,7.70
2022-12-25T16:29:51.480Z,7.80
2022-12-25T16:32:20.072Z,7.80
2022-12-25T16:34:49.227Z,7.80
2022-12-25T16:37:17.745Z,7.80
2022-12-25T16:39:46.636Z,7.88
2022-12-25T16:42:15.117Z,7.90
2022-12-25T16:44:43.908Z,7.90
2022-12-25T16:47:12.506Z,7.90
2022-12-25T16:49:41.305Z,7.90
2022-12-25T16:52:10.071Z,7.90
2022-12-25T16:54:38.653Z,7.90
2022-12-25T16:57:07.245Z,7.94
2022-12-25T16:59:36.234Z,8.00
2022-12-25T17:02:05.166Z,7.98
2022-12-25T17:04:33.813Z,8.00
2022-12-25T17:07:02.498Z,8.00
2022-12-25T17:09:31.524Z,8.00
2022-12-25T17:12:00.302Z,8.00
2022-12-25T17:14:29.075Z,8.00
2022-12-25T17:16:57.655Z,8.00
2022-12-25T17:19:26.752Z,8.00
2022-12-25T17:21:55.852Z,8.00
2022-12-25T17:24:24.436Z,8.00
2022-12-25T17:26:53.361Z,8.00
2022-12-25T17:29:23.011Z,8.00
2022-12-25T17:31:52.080Z,8.00
2022-12-25T17:34:20.720Z,8.00
2022-12-25T17:36:49.306Z,8.00
2022-12-25T17:39:17.991Z,8.00
2022-12-25T17:41:46.778Z,8.00
2022-12-25T17:44:15.361Z,8.00
2022-12-25T17:46:44.100Z,8.06
2022-12-25T17:49:20.431Z,8.02
2022-12-25T17:51:49.000Z,8.04
2022-12-25T17:54:17.587Z,8.08
2022-12-25T17:56:46.487Z,8.10
2022-12-25T17:59:19.024Z,8.10
2022-12-25T18:01:49.406Z,8.10
2022-12-25T18:04:18.577Z,8.10
2022-12-25T18:06:47.366Z,8.10
2022-12-25T18:09:16.360Z,8.10
2022-12-25T18:11:44.947Z,8.10
2022-12-25T18:14:16.478Z,8.10
2022-12-25T18:16:45.939Z,8.10
2022-12-25T18:19:17.940Z,8.10
2022-12-25T18:21:46.455Z,8.10
2022-12-25T18:24:15.136Z,8.10
2022-12-25T18:26:44.257Z,8.18
2022-12-25T18:29:12.816Z,8.20
2022-12-25T18:31:44.107Z,8.20
2022-12-25T18:34:12.850Z,8.20
2022-12-25T18:36:41.642Z,8.28
2022-12-25T18:39:12.643Z,8.30
2022-12-25T18:42:01.144Z,8.30
2022-12-25T18:44:30.777Z,8.30
2022-12-25T18:46:59.430Z,8.30
2022-12-25T18:49:28.010Z,8.30
2022-12-25T18:52:49.304Z,8.30
2022-12-25T18:54:45.463Z,8.30
2022-12-25T18:57:14.143Z,8.34
2022-12-25T18:59:42.841Z,8.32
2022-12-25T19:02:12.183Z,8.38
2022-12-25T19:04:43.708Z,8.40
2022-12-25T19:07:12.987Z,8.40
2022-12-25T19:09:41.574Z,8.40
2022-12-25T19:12:10.373Z,8.40
2022-12-25T19:14:48.106Z,8.40
2022-12-25T19:17:18.255Z,8.40
2022-12-25T19:19:47.077Z,8.40
2022-12-25T19:22:15.767Z,8.40
2022-12-25T19:24:44.757Z,8.40
2022-12-25T19:27:13.442Z,8.40
2022-12-25T19:29:42.232Z,8.40
2022-12-25T19:32:10.899Z,8.40
2022-12-25T19:34:39.705Z,8.42
2022-12-25T19:37:08.290Z,8.48
2022-12-25T19:39:36.874Z,8.50
2022-12-25T19:42:05.581Z,8.50
2022-12-25T19:44:34.260Z,8.50
2022-12-25T19:47:03.060Z,8.50
2022-12-25T19:49:31.834Z,8.50
2022-12-25T19:52:00.416Z,8.50
2022-12-25T19:54:29.819Z,8.50
2022-12-25T19:56:58.511Z,8.50
2022-12-25T19:59:27.291Z,8.50
2022-12-25T20:01:56.149Z,8.50
2022-12-25T20:04:25.076Z,8.50
2022-12-25T20:06:54.168Z,8.50
2022-12-25T20:09:24.311Z,8.50
2022-12-25T20:11:52.977Z,8.50
2022-12-25T20:14:21.575Z,8.50
2022-12-25T20:16:50.623Z,8.50
2022-12-25T20:19:19.342Z,8.42
2022-12-25T20:21:48.028Z,8.40
2022-12-25T20:24:16.719Z,8.40
2022-12-25T20:26:47.755Z,8.40
2022-12-25T20:29:17.065Z,8.40
2022-12-25T20:31:45.967Z,8.40
2022-12-25T20:34:14.663Z,8.40
2022-12-25T20:36:45.578Z,8.40
2022-12-25T20:39:14.233Z,8.40
2022-12-25T20:41:44.295Z,8.40
2022-12-25T20:44:13.591Z,8.40
2022-12-25T20:46:42.269Z,8.40
2022-12-25T20:49:11.071Z,8.40
2022-12-25T20:51:40.437Z,8.40
2022-12-25T20:54:12.866Z,8.40
2022-12-25T20:56:41.931Z,8.40
2022-12-25T20:59:12.155Z,8.40
2022-12-25T21:01:43.180Z,8.40
2022-12-25T21:04:16.222Z,8.40
2022-12-25T21:06:45.592Z,8.40
2022-12-25T21:09:14.276Z,8.40
2022-12-25T21:11:42.964Z,8.40
2022-12-25T21:14:11.551Z,8.40
2022-12-25T21:16:40.174Z,8.40
2022-12-25T21:19:09.021Z,8.44
2022-12-25T21:21:42.940Z,8.46
2022-12-25T21:24:11.641Z,8.50
2022-12-25T21:26:46.129Z,8.50
2022-12-25T21:29:18.113Z,8.50
2022-12-25T21:32:05.443Z,8.50
2022-12-25T21:34:34.149Z,8.50
2022-12-25T21:37:02.801Z,8.50
2022-12-25T21:39:31.411Z,8.50
2022-12-25T21:42:00.084Z,8.50
2022-12-25T21:44:28.766Z,8.50
2022-12-25T21:46:57.446Z,8.50
2022-12-25T21:49:44.972Z,8.50
2022-12-25T21:52:13.665Z,8.50
2022-12-25T21:54:42.246Z,8.50
2022-12-25T21:57:10.935Z,8.50
2022-12-25T21:59:39.519Z,8.50
2022-12-25T22:02:11.903Z,8.50
2022-12-25T22:04:40.781Z,8.54
2022-12-25T22:07:19.917Z,8.60
2022-12-25T22:09:51.391Z,8.60
2022-12-25T22:12:40.374Z,8.60
2022-12-25T22:15:10.820Z,8.60
2022-12-25T22:18:00.950Z,8.60
2022-12-25T22:20:36.803Z,8.60
2022-12-25T22:23:06.105Z,8.64
2022-12-25T22:25:34.588Z,8.70
2022-12-25T22:28:03.175Z,8.70
2022-12-25T22:30:32.184Z,8.70
2022-12-25T22:33:00.642Z,8.76
2022-12-25T22:35:29.242Z,8.80
2022-12-25T22:37:58.042Z,8.80
2022-12-25T22:40:26.706Z,8.90
2022-12-25T22:42:56.684Z,8.90
2022-12-25T22:45:25.221Z,8.90
2022-12-25T22:47:53.898Z,8.90
2022-12-25T22:50:22.681Z,8.90
2022-12-25T22:52:51.166Z,8.98
2022-12-25T22:55:20.410Z,8.98
2022-12-25T22:57:49.379Z,9.00
2022-12-25T23:00:18.197Z,9.00
2022-12-25T23:02:47.151Z,9.00
2022-12-25T23:05:16.792Z,9.00
2022-12-25T23:07:45.351Z,9.00
2022-12-25T23:10:14.129Z,9.00
2022-12-25T23:13:01.954Z,9.00
2022-12-25T23:15:31.682Z,9.00
2022-12-25T23:18:19.202Z,9.02
2022-12-25T23:21:06.422Z,9.06
2022-12-25T23:23:53.741Z,9.10
2022-12-25T23:26:23.262Z,9.10
2022-12-25T23:29:10.799Z,9.10
2022-12-25T23:31:42.187Z,9.10
2022-12-25T23:34:11.326Z,9.10
2022-12-25T23:36:39.812Z,9.10
2022-12-25T23:39:10.495Z,9.10
2022-12-25T23:41:42.355Z,9.10
2022-12-25T23:44:12.998Z,9.16
2022-12-25T23:46:42.054Z,9.20
2022-12-25T23:49:24.452Z,9.20
2022-12-25T23:51:54.359Z,9.20
2022-12-25T23:54:27.966Z,9.20
2022-12-25T23:56:57.902Z,9.20
2022-12-25T23:59:29.781Z,9.20
